Time;durP1;ratioP1;P1;durP2;ratioP2;P2;SDS_P1;SDS_P2;PMS_P1;PMS_P2;Temp;Humidity;BMP_temperature;BMP_pressure;BME280_temperature;BME280_humidity;BME280_pressure;Samples;Min_cycle;Max_cycle;Signal;HPM_P1;HPM_P2
2022/07/09 00:01:32;;;;;;;7.13;3.00;;;;;;;22.01;50.74;102327.53;5018188;28;20064;-66
2022/07/09 00:03:59;;;;;;;7.38;2.42;;;;;;;21.87;51.40;102338.28;5022425;28;20060;-66
2022/07/09 00:06:27;;;;;;;11.07;3.05;;;;;;;21.91;51.35;102333.59;5021939;28;20053;-67
2022/07/09 00:08:54;;;;;;;8.80;2.80;;;;;;;21.78;51.81;102337.56;5032011;28;20531;-65
2022/07/09 00:11:21;;;;;;;9.75;3.00;;;;;;;21.82;51.80;102330.91;5042845;28;20057;-66
2022/07/09 00:13:49;;;;;;;7.90;2.90;;;;;;;21.82;51.92;102332.91;5035381;28;20057;-66
2022/07/09 00:16:16;;;;;;;5.82;2.38;;;;;;;21.80;52.19;102326.81;5034984;28;20054;-65
2022/07/09 00:18:44;;;;;;;6.70;2.70;;;;;;;21.75;52.27;102333.47;5035330;28;20507;-66
2022/07/09 00:21:11;;;;;;;8.68;3.00;;;;;;;21.91;51.69;102320.41;5021645;28;20064;-66
2022/07/09 00:23:39;;;;;;;9.40;2.80;;;;;;;21.61;52.36;102330.19;5062963;28;20053;-65
2022/07/09 00:26:06;;;;;;;8.23;2.75;;;;;;;21.57;53.05;102326.41;5035055;28;20052;-66
2022/07/09 00:28:33;;;;;;;11.68;2.67;;;;;;;21.46;53.10;102327.25;5045073;28;20060;-67
2022/07/09 00:31:01;;;;;;;6.13;2.25;;;;;;;21.44;53.33;102318.34;5034721;28;20094;-66
2022/07/09 00:33:29;;;;;;;6.28;2.80;;;;;;;21.42;53.44;102318.69;5032892;28;20507;-66
2022/07/09 00:35:56;;;;;;;6.65;2.05;;;;;;;21.26;54.00;102312.13;5024052;28;20052;-65
2022/07/09 00:38:23;;;;;;;8.43;2.40;;;;;;;21.45;53.11;102317.16;5063896;28;20053;-65
2022/07/09 00:40:51;;;;;;;5.20;2.05;;;;;;;21.50;53.23;102305.72;5024550;28;20050;-66
2022/07/09 00:43:19;;;;;;;8.50;2.35;;;;;;;21.35;53.51;102318.44;5031736;28;20061;-66
2022/07/09 00:45:46;;;;;;;6.20;2.50;;;;;;;21.61;53.10;102313.34;5024791;28;20080;-66
2022/07/09 00:48:14;;;;;;;6.07;2.20;;;;;;;21.67;52.76;102311.94;5022018;28;20054;-66
2022/07/09 00:50:43;;;;;;;11.00;2.83;;;;;;;21.66;52.53;102315.91;5023812;28;20064;-65
2022/07/09 00:53:12;;;;;;;8.30;2.40;;;;;;;21.76;52.42;102309.84;5031047;28;20057;-65
2022/07/09 00:55:40;;;;;;;9.07;2.97;;;;;;;21.67;52.61;102317.53;5049685;28;20061;-65
2022/07/09 00:58:09;;;;;;;7.75;2.58;;;;;;;21.81;52.26;102314.44;5060436;28;20057;-66
2022/07/09 01:00:36;;;;;;;6.97;2.30;;;;;;;21.69;52.47;102312.41;5026218;28;20057;-65
2022/07/09 01:03:03;;;;;;;6.47;2.55;;;;;;;21.39;53.30;102311.00;5031816;28;20053;-65
2022/07/09 01:05:35;;;;;;;5.65;2.28;;;;;;;21.36;53.22;102317.28;5034192;28;20045;-65
2022/07/09 01:08:04;;;;;;;5.80;2.47;;;;;;;21.35;53.69;102312.84;5035601;28;20409;-66
2022/07/09 01:10:32;;;;;;;6.00;2.45;;;;;;;21.22;53.79;102309.19;5020434;28;20049;-65
2022/07/09 01:13:02;;;;;;;5.93;2.50;;;;;;;21.14;54.12;102309.28;5034491;28;20060;-67
2022/07/09 01:15:29;;;;;;;11.15;2.90;;;;;;;21.21;54.39;102301.13;5014948;28;20045;-67
2022/07/09 01:17:58;;;;;;;6.07;2.50;;;;;;;21.15;54.16;102294.09;5023965;28;20061;-66
2022/07/09 01:20:26;;;;;;;5.88;2.55;;;;;;;21.16;54.46;102301.38;5047981;28;20057;-65
2022/07/09 01:22:53;;;;;;;8.65;2.95;;;;;;;21.16;54.24;102296.59;5034012;28;20057;-66
2022/07/09 01:25:27;;;;;;;8.38;2.63;;;;;;;21.02;54.76;102293.28;5022841;28;20057;-66
2022/07/09 01:27:54;;;;;;;6.50;2.58;;;;;;;21.09;54.76;102292.69;5022448;28;20060;-65
2022/07/09 01:30:26;;;;;;;7.75;2.50;;;;;;;21.10;54.90;102288.72;5022740;28;20054;-67
2022/07/09 01:32:54;;;;;;;6.45;2.50;;;;;;;21.11;54.62;102284.78;5024976;28;20050;-65
2022/07/09 01:35:22;;;;;;;14.10;2.65;;;;;;;20.93;55.20;102288.88;5045130;28;20053;-66
2022/07/09 01:37:49;;;;;;;9.68;2.65;;;;;;;21.45;53.98;102283.53;5033040;28;20064;-66
2022/07/09 01:40:17;;;;;;;5.32;2.55;;;;;;;21.37;53.63;102288.09;5037905;28;20045;-66
2022/07/09 01:42:44;;;;;;;8.25;2.50;;;;;;;20.84;55.29;102294.56;5044374;28;20057;-66
2022/07/09 01:45:11;;;;;;;6.25;2.55;;;;;;;20.86;55.26;102289.44;5045679;28;20053;-65
2022/07/09 01:47:39;;;;;;;5.97;2.55;;;;;;;21.16;55.19;102285.38;5025085;28;20065;-66
2022/07/09 01:50:07;;;;;;;9.02;2.63;;;;;;;21.40;54.16;102287.38;5027256;28;20041;-65
2022/07/09 01:52:34;;;;;;;10.48;2.88;;;;;;;21.35;54.09;102282.00;5025374;28;20668;-66
2022/07/09 01:55:02;;;;;;;7.75;2.92;;;;;;;21.16;54.74;102276.13;5036135;28;20056;-65
2022/07/09 01:57:29;;;;;;;9.00;2.65;;;;;;;21.16;54.71;102279.78;5037974;28;20053;-65
2022/07/09 01:59:57;;;;;;;9.02;2.83;;;;;;;21.31;54.50;102278.25;5024680;28;20052;-62
2022/07/09 02:02:24;;;;;;;7.93;2.60;;;;;;;21.10;55.17;102274.72;5037471;28;20052;-64
2022/07/09 02:04:51;;;;;;;8.88;2.60;;;;;;;20.94;56.16;102256.88;5031575;28;20050;-66
2022/07/09 02:07:19;;;;;;;9.07;2.45;;;;;;;20.90;56.16;102261.56;5024405;28;20428;-65
2022/07/09 02:09:48;;;;;;;8.82;2.97;;;;;;;21.23;54.88;102268.78;5037704;28;20056;-65
2022/07/09 02:12:16;;;;;;;9.32;2.50;;;;;;;21.01;55.37;102260.81;5037614;28;20151;-62
2022/07/09 02:14:44;;;;;;;9.38;2.55;;;;;;;20.71;56.45;102264.06;5030401;28;20167;-62
2022/07/09 02:17:11;;;;;;;14.57;3.00;;;;;;;20.96;55.86;102255.38;5032098;28;20053;-61
2022/07/09 02:19:39;;;;;;;9.05;2.90;;;;;;;20.97;55.35;102256.22;5044414;28;20157;-66
2022/07/09 02:22:06;;;;;;;7.25;2.90;;;;;;;21.01;55.56;102251.56;5021643;28;20053;-62
2022/07/09 02:24:35;;;;;;;7.00;2.75;;;;;;;20.74;56.15;102263.38;5035732;28;20057;-61
2022/07/09 02:27:02;;;;;;;8.20;2.83;;;;;;;20.46;57.31;102260.34;5035268;28;20183;-66
2022/07/09 02:29:30;;;;;;;6.93;2.78;;;;;;;20.72;56.74;102251.69;5031011;28;20053;-66
2022/07/09 02:31:57;;;;;;;5.82;2.30;;;;;;;20.62;56.68;102252.13;5029336;28;20053;-66
2022/07/09 02:34:25;;;;;;;6.70;2.40;;;;;;;20.73;56.70;102242.94;5035217;28;20054;-66
2022/07/09 02:36:52;;;;;;;5.03;2.40;;;;;;;20.78;56.58;102244.72;5035319;28;20056;-66
2022/07/09 02:39:19;;;;;;;9.07;2.38;;;;;;;20.93;56.26;102244.88;5032022;28;20041;-66
2022/07/09 02:41:47;;;;;;;8.70;2.47;;;;;;;20.61;57.24;102248.50;5049893;28;20073;-64
2022/07/09 02:44:14;;;;;;;9.27;2.80;;;;;;;20.38;57.87;102243.63;5036127;28;20057;-66
2022/07/09 02:46:41;;;;;;;6.90;2.28;;;;;;;20.49;57.95;102237.25;5036493;28;20061;-60
2022/07/09 02:49:10;;;;;;;6.57;2.42;;;;;;;20.50;57.46;102250.09;5036937;28;20056;-66
2022/07/09 02:51:37;;;;;;;6.78;2.50;;;;;;;20.59;57.38;102245.22;5036610;28;20064;-64
2022/07/09 02:54:05;;;;;;;5.47;2.33;;;;;;;20.51;57.67;102250.91;5026241;28;20050;-65
2022/07/09 02:56:32;;;;;;;6.47;2.55;;;;;;;20.76;57.29;102242.28;5034812;28;20053;-61
2022/07/09 02:58:59;;;;;;;11.75;2.92;;;;;;;20.42;57.72;102250.16;5068427;28;20065;-61
2022/07/09 03:01:27;;;;;;;10.02;2.50;;;;;;;20.22;58.72;102248.22;5036321;28;20041;-61
2022/07/09 03:03:55;;;;;;;6.60;2.47;;;;;;;19.95;59.75;102249.50;5036587;28;20060;-61
2022/07/09 03:06:22;;;;;;;7.40;2.63;;;;;;;20.25;59.07;102248.34;5032760;28;20049;-61
2022/07/09 03:08:50;;;;;;;5.15;2.50;;;;;;;20.02;59.63;102256.22;5032127;28;20050;-61
2022/07/09 03:11:17;;;;;;;9.82;2.92;;;;;;;19.86;60.41;102255.16;5054786;28;20074;-60
2022/07/09 03:13:44;;;;;;;5.78;2.28;;;;;;;20.15;58.90;102257.91;5023575;28;20053;-61
2022/07/09 03:16:12;;;;;;;6.60;2.47;;;;;;;20.07;59.83;102253.22;5045580;28;20060;-61
2022/07/09 03:18:39;;;;;;;8.88;2.60;;;;;;;20.02;59.65;102259.03;5036436;28;20050;-62
2022/07/09 03:21:08;;;;;;;7.22;2.30;;;;;;;19.98;59.83;102257.22;5020722;28;20042;-66
2022/07/09 03:23:36;;;;;;;4.85;2.45;;;;;;;20.01;59.70;102264.97;5035084;28;20049;-62
2022/07/09 03:26:04;;;;;;;6.65;2.65;;;;;;;19.75;60.62;102265.09;5034818;28;20149;-61
2022/07/09 03:28:31;;;;;;;6.45;2.42;;;;;;;19.76;60.90;102257.53;5034062;28;20052;-61
2022/07/09 03:30:59;;;;;;;6.47;2.90;;;;;;;19.89;60.85;102254.47;5034040;28;20046;-66
2022/07/09 03:33:27;;;;;;;7.53;2.80;;;;;;;19.88;59.94;102266.84;5026777;28;20054;-66
2022/07/09 03:35:58;;;;;;;10.13;2.55;;;;;;;19.57;61.44;102268.34;5064156;28;20053;-66
2022/07/09 03:38:25;;;;;;;8.57;2.75;;;;;;;19.66;61.30;102271.91;5050996;28;20416;-66
2022/07/09 03:40:53;;;;;;;10.98;2.90;;;;;;;19.45;61.78;102271.84;5020223;28;20412;-65
2022/07/09 03:43:20;;;;;;;6.93;2.85;;;;;;;19.12;63.12;102265.22;5043219;28;20052;-61
2022/07/09 03:45:47;;;;;;;4.97;2.38;;;;;;;19.10;63.43;102273.09;5024010;28;20519;-68
2022/07/09 03:48:15;;;;;;;7.38;2.67;;;;;;;19.12;63.93;102272.75;5036732;28;20049;-65
2022/07/09 03:50:42;;;;;;;8.77;3.00;;;;;;;19.41;63.31;102268.09;5032380;28;20066;-65
2022/07/09 03:53:09;;;;;;;7.88;2.45;;;;;;;19.45;62.58;102273.81;5022299;28;20053;-66
2022/07/09 03:55:37;;;;;;;7.35;2.83;;;;;;;19.41;62.52;102281.22;5035325;28;20057;-66
2022/07/09 03:58:04;;;;;;;8.93;3.10;;;;;;;19.05;63.34;102278.88;5021099;28;20061;-65
2022/07/09 04:00:32;;;;;;;4.97;2.55;;;;;;;19.05;63.67;102276.06;5032200;28;20072;-66
2022/07/09 04:02:59;;;;;;;5.95;2.80;;;;;;;19.23;63.28;102279.63;5036104;28;20085;-67
2022/07/09 04:05:26;;;;;;;5.93;2.53;;;;;;;19.13;63.42;102286.41;5027992;28;20084;-66
2022/07/09 04:07:54;;;;;;;11.18;2.63;;;;;;;19.17;63.56;102294.94;5027656;28;20053;-66
2022/07/09 04:10:21;;;;;;;7.85;3.05;;;;;;;19.32;62.62;102284.06;5025621;28;20058;-67
2022/07/09 04:12:48;;;;;;;9.05;3.40;;;;;;;18.96;63.65;102290.06;5031012;28;20053;-66
2022/07/09 04:15:15;;;;;;;4.78;2.53;;;;;;;18.91;64.21;102303.38;5040689;28;20042;-65
2022/07/09 04:17:43;;;;;;;9.82;3.03;;;;;;;19.17;63.53;102298.56;5015636;28;20046;-66
2022/07/09 04:20:11;;;;;;;8.60;3.10;;;;;;;19.02;63.37;102299.09;5024133;28;20050;-66
2022/07/09 04:22:38;;;;;;;14.48;3.35;;;;;;;19.05;63.30;102296.47;5034992;28;20042;-66
2022/07/09 04:25:06;;;;;;;8.85;3.00;;;;;;;19.02;62.92;102299.09;5024659;28;20522;-62
2022/07/09 04:27:35;;;;;;;9.90;3.20;;;;;;;18.72;64.04;102309.31;5031392;28;20404;-61
2022/07/09 04:30:04;;;;;;;6.15;3.35;;;;;;;18.91;63.61;102304.19;5032313;28;20084;-61
2022/07/09 04:32:31;;;;;;;9.18;3.28;;;;;;;18.72;63.92;102302.91;5035215;28;20064;-61
2022/07/09 04:34:58;;;;;;;9.32;3.40;;;;;;;18.41;65.17;102294.69;5050341;28;20132;-62
2022/07/09 04:37:25;;;;;;;7.50;3.15;;;;;;;18.45;65.43;102300.44;5025379;28;20050;-61
2022/07/09 04:39:53;;;;;;;10.82;3.33;;;;;;;18.37;65.64;102293.69;5035103;28;20068;-60
2022/07/09 04:42:21;;;;;;;11.68;3.40;;;;;;;18.42;65.60;102293.56;5031346;28;20061;-61
2022/07/09 04:44:48;;;;;;;7.13;3.30;;;;;;;18.58;65.23;102294.72;5038737;28;20053;-61
2022/07/09 04:47:15;;;;;;;9.40;3.25;;;;;;;18.84;63.80;102295.50;5031716;28;20050;-61
2022/07/09 04:49:43;;;;;;;5.50;3.03;;;;;;;18.86;64.25;102290.38;5026928;28;20049;-62
2022/07/09 04:52:10;;;;;;;9.40;3.88;;;;;;;18.95;63.42;102294.00;5055982;28;20524;-66
2022/07/09 04:54:38;;;;;;;7.20;3.25;;;;;;;19.25;62.81;102291.31;5034451;28;20523;-61
2022/07/09 04:57:05;;;;;;;10.10;3.60;;;;;;;19.28;62.33;102288.66;5059987;28;20420;-62
2022/07/09 04:59:32;;;;;;;10.13;3.88;;;;;;;19.00;63.58;102284.63;5027843;28;20066;-61
2022/07/09 05:02:00;;;;;;;8.18;3.47;;;;;;;19.07;63.12;102284.94;5023969;28;20053;-67
2022/07/09 05:04:27;;;;;;;8.23;3.60;;;;;;;18.88;63.75;102288.09;5027878;28;20049;-66
2022/07/09 05:06:54;;;;;;;9.15;3.55;;;;;;;18.86;63.56;102289.59;5057226;28;20389;-66
2022/07/09 05:09:22;;;;;;;6.35;3.05;;;;;;;18.69;64.80;102293.22;5026468;28;20053;-66
2022/07/09 05:11:49;;;;;;;7.45;3.47;;;;;;;18.87;64.27;102291.22;5031238;28;20054;-66
2022/07/09 05:14:16;;;;;;;11.50;3.53;;;;;;;18.92;64.01;102302.22;5031530;28;20045;-66
2022/07/09 05:16:46;;;;;;;9.02;3.30;;;;;;;18.89;64.00;102298.13;5020970;28;20412;-65
2022/07/09 05:19:14;;;;;;;;;;;;;;;18.61;65.37;102304.38;5050005;28;20053;-61
2022/07/09 05:21:41;;;;;;;7.95;3.10;;;;;;;18.65;65.56;102297.84;5053163;28;19921;-64
2022/07/09 05:24:09;;;;;;;8.77;3.58;;;;;;;18.93;64.76;102296.28;5041956;28;20058;-66
2022/07/09 05:26:36;;;;;;;9.52;3.38;;;;;;;19.23;63.71;102294.41;5033321;28;20045;-66
2022/07/09 05:29:04;;;;;;;7.63;3.67;;;;;;;19.04;63.65;102299.56;5038562;28;20524;-66
2022/07/09 05:31:31;;;;;;;8.73;3.90;;;;;;;18.76;64.52;102299.13;5038056;28;20053;-67
2022/07/09 05:34:02;;;;;;;10.05;3.28;;;;;;;18.79;65.13;102303.22;5027920;28;20057;-61
2022/07/09 05:36:29;;;;;;;11.35;3.60;;;;;;;18.82;65.45;102296.97;5032751;28;20069;-61
2022/07/09 05:38:57;;;;;;;6.85;3.42;;;;;;;18.61;65.83;102299.63;5028595;28;20060;-61
2022/07/09 05:41:25;;;;;;;8.50;3.85;;;;;;;18.50;65.38;102301.09;5036897;28;20053;-61
2022/07/09 05:43:53;;;;;;;7.00;3.80;;;;;;;18.43;66.02;102299.97;5021028;28;20128;-66
2022/07/09 05:46:21;;;;;;;6.57;3.38;;;;;;;18.37;66.33;102299.28;5037897;28;20046;-65
2022/07/09 05:48:49;;;;;;;8.80;3.78;;;;;;;18.53;65.71;102294.84;5035309;28;20068;-63
2022/07/09 05:51:16;;;;;;;10.13;3.70;;;;;;;18.37;66.34;102298.44;5035973;28;20046;-60
2022/07/09 05:53:44;;;;;;;7.75;3.42;;;;;;;18.54;65.93;102288.16;5025545;28;20085;-61
2022/07/09 05:56:11;;;;;;;8.70;3.38;;;;;;;18.47;66.42;102289.78;5036310;28;20653;-61
2022/07/09 05:58:38;;;;;;;9.77;4.15;;;;;;;18.93;65.00;102290.69;5041908;28;20041;-61
2022/07/09 06:01:06;;;;;;;9.50;3.42;;;;;;;18.89;64.83;102295.34;5038853;28;20045;-61
2022/07/09 06:03:34;;;;;;;9.75;3.40;;;;;;;19.03;64.61;102298.75;5023908;28;20058;-65
2022/07/09 06:06:02;;;;;;;5.75;3.38;;;;;;;19.28;63.77;102291.47;5063006;28;20053;-62
2022/07/09 06:08:31;;;;;;;9.85;3.65;;;;;;;19.31;63.66;102296.41;5043474;28;20056;-62
2022/07/09 06:11:00;;;;;;;12.05;4.00;;;;;;;19.51;62.51;102306.84;5025086;28;20060;-67
2022/07/09 06:13:27;;;;;;;8.48;4.00;;;;;;;19.40;63.04;102291.59;5011452;28;20046;-67
2022/07/09 06:15:55;;;;;;;10.30;4.00;;;;;;;19.52;62.54;102302.06;5061037;28;20054;-67
2022/07/09 06:18:22;;;;;;;9.50;3.67;;;;;;;19.50;62.60;102296.81;5052332;28;20045;-67
2022/07/09 06:20:50;;;;;;;9.68;3.95;;;;;;;19.54;62.32;102299.75;5036178;28;20450;-66
2022/07/09 06:23:17;;;;;;;7.95;4.05;;;;;;;19.41;62.96;102289.59;5031016;28;20041;-66
2022/07/09 06:25:44;;;;;;;8.02;3.38;;;;;;;19.30;63.39;102297.53;5035048;28;20084;-66
2022/07/09 06:28:12;;;;;;;8.38;4.53;;;;;;;19.53;62.71;102298.09;5037416;28;20053;-66
2022/07/09 06:30:39;;;;;;;11.07;4.35;;;;;;;19.50;62.34;102298.78;5037850;28;20041;-66
2022/07/09 06:33:06;;;;;;;9.27;3.88;;;;;;;19.61;62.13;102298.09;5037551;28;20072;-67
2022/07/09 06:35:34;;;;;;;12.73;3.92;;;;;;;19.42;62.71;102299.66;5045203;28;20058;-67
2022/07/09 06:38:01;;;;;;;10.25;4.32;;;;;;;19.66;62.65;102300.69;5028381;28;20049;-66
2022/07/09 06:40:29;;;;;;;11.88;3.88;;;;;;;19.93;62.13;102299.38;5019625;28;20061;-66
2022/07/09 06:42:56;;;;;;;10.00;4.00;;;;;;;20.15;60.88;102296.28;5031335;28;20056;-66
2022/07/09 06:45:32;;;;;;;9.98;3.90;;;;;;;20.09;60.73;102298.47;5036923;28;20053;-66
2022/07/09 06:48:00;;;;;;;7.68;3.70;;;;;;;20.22;60.86;102296.59;5023665;28;20054;-65
2022/07/09 06:50:27;;;;;;;11.77;3.90;;;;;;;20.29;61.03;102298.84;5048484;28;20052;-65
2022/07/09 06:52:54;;;;;;;9.85;4.03;;;;;;;20.31;60.44;102296.53;5038185;28;20060;-67
2022/07/09 06:55:22;;;;;;;7.60;3.72;;;;;;;20.28;60.53;102298.03;5042308;28;20513;-66
2022/07/09 06:57:49;;;;;;;10.73;4.28;;;;;;;20.29;60.08;102299.69;5048629;28;20064;-66
2022/07/09 07:00:17;;;;;;;8.07;3.70;;;;;;;20.46;60.50;102304.31;5015224;28;20149;-66
2022/07/09 07:02:44;;;;;;;10.98;4.43;;;;;;;20.42;59.69;102298.56;5033364;28;20053;-66
2022/07/09 07:05:11;;;;;;;8.45;3.90;;;;;;;20.56;59.27;102299.13;5040146;28;20049;-66
2022/07/09 07:07:44;;;;;;;12.07;4.38;;;;;;;20.91;58.21;102288.41;5035976;28;20049;-66
2022/07/09 07:10:12;;;;;;;10.48;3.80;;;;;;;21.23;57.40;102282.78;5037145;28;20048;-67
2022/07/09 07:12:40;;;;;;;9.07;4.03;;;;;;;21.06;57.58;102285.78;5036136;28;20050;-65
2022/07/09 07:15:08;;;;;;;10.38;4.15;;;;;;;21.06;57.49;102280.19;5020934;28;20058;-65
2022/07/09 07:17:35;;;;;;;10.82;4.32;;;;;;;20.79;58.16;102286.38;5026759;28;20056;-65
2022/07/09 07:20:03;;;;;;;13.93;4.65;;;;;;;21.13;57.67;102280.44;5031394;28;20053;-62
2022/07/09 07:22:31;;;;;;;13.05;4.13;;;;;;;20.79;57.89;102292.00;5042480;28;20068;-66
2022/07/09 07:24:58;;;;;;;11.15;4.22;;;;;;;21.08;57.71;102283.47;5038233;28;20516;-65
2022/07/09 07:27:25;;;;;;;12.43;4.43;;;;;;;21.31;56.48;102292.28;5035976;28;20041;-65
2022/07/09 07:29:52;;;;;;;12.50;4.18;;;;;;;21.32;56.51;102285.53;5033658;28;20053;-66
2022/07/09 07:32:20;;;;;;;7.75;3.55;;;;;;;21.23;56.80;102290.41;5016266;28;20046;-64
2022/07/09 07:34:47;;;;;;;7.30;3.78;;;;;;;21.30;56.77;102285.03;5060648;28;20081;-62
2022/07/09 07:37:14;;;;;;;12.68;4.20;;;;;;;21.52;55.68;102284.59;5025511;28;20058;-63
2022/07/09 07:39:42;;;;;;;12.50;4.13;;;;;;;21.91;54.85;102285.91;5031761;28;20049;-62
2022/07/09 07:42:09;;;;;;;12.00;3.95;;;;;;;22.32;54.15;102283.59;5033996;28;20049;-62
2022/07/09 07:44:36;;;;;;;15.43;4.72;;;;;;;22.35;54.24;102282.09;5033881;28;20059;-62
2022/07/09 07:47:04;;;;;;;10.18;3.65;;;;;;;22.34;52.58;102286.06;5033826;28;20061;-62
2022/07/09 07:49:31;;;;;;;9.32;3.92;;;;;;;22.55;52.45;102288.72;5029013;28;20049;-62
2022/07/09 07:51:59;;;;;;;9.18;3.40;;;;;;;23.57;49.65;102280.31;5023944;28;20493;-62
2022/07/09 07:54:26;;;;;;;15.43;3.65;;;;;;;23.25;49.83;102283.09;5035198;28;20053;-63
2022/07/09 07:56:53;;;;;;;10.98;3.63;;;;;;;23.37;49.83;102285.03;5035863;28;20053;-62
2022/07/09 07:59:21;;;;;;;15.85;4.38;;;;;;;23.84;48.76;102268.94;5026452;28;20054;-63
2022/07/09 08:01:48;;;;;;;10.25;3.25;;;;;;;24.04;48.22;102281.09;5035055;28;20492;-62
2022/07/09 08:04:15;;;;;;;7.28;3.15;;;;;;;24.40;47.14;102267.44;5035124;28;20049;-62
2022/07/09 08:06:43;;;;;;;12.75;3.28;;;;;;;24.34;46.36;102274.53;5035506;28;20057;-67
2022/07/09 08:09:10;;;;;;;10.88;3.47;;;;;;;24.10;46.88;102280.44;5032777;28;20111;-62
2022/07/09 08:11:37;;;;;;;11.32;3.40;;;;;;;24.35;47.67;102272.53;5027966;28;20053;-62
2022/07/09 08:14:06;;;;;;;9.55;3.28;;;;;;;24.18;46.73;102278.59;5025464;28;20561;-62
2022/07/09 08:16:34;;;;;;;15.07;3.67;;;;;;;24.47;46.69;102264.78;5030053;28;20072;-62
2022/07/09 08:19:01;;;;;;;7.97;3.42;;;;;;;23.99;47.34;102278.53;5034990;28;20065;-62
2022/07/09 08:21:29;;;;;;;9.48;2.88;;;;;;;24.08;47.09;102271.53;5034483;28;20057;-62
2022/07/09 08:23:56;;;;;;;11.50;2.63;;;;;;;24.21;46.96;102270.25;5030869;28;20053;-63
2022/07/09 08:26:25;;;;;;;6.97;2.58;;;;;;;24.35;46.14;102269.72;5030925;28;20061;-61
2022/07/09 08:28:53;;;;;;;9.90;2.83;;;;;;;24.50;45.68;102266.03;5025761;28;20042;-62
2022/07/09 08:31:21;;;;;;;6.78;2.55;;;;;;;23.86;46.02;102254.50;5032814;28;20046;-62
2022/07/09 08:33:50;;;;;;;8.82;2.25;;;;;;;24.03;45.98;102256.94;5044591;28;20055;-62
2022/07/09 08:36:18;;;;;;;19.20;2.40;;;;;;;24.02;46.97;102261.75;5035453;28;20056;-63
2022/07/09 08:38:47;;;;;;;8.85;2.63;;;;;;;23.82;47.15;102262.84;5026839;28;20496;-63
2022/07/09 08:41:16;;;;;;;10.38;2.28;;;;;;;24.26;49.37;102258.69;5032028;28;20053;-40
2022/07/09 08:43:52;;;;;;;5.55;2.33;;;;;;;24.04;46.13;102250.13;5034300;28;20404;-63
2022/07/09 08:46:19;;;;;;;7.80;1.95;;;;;;;23.71;45.94;102264.59;5031618;28;20053;-65
2022/07/09 08:48:47;;;;;;;9.63;2.40;;;;;;;23.35;47.67;102271.34;5031299;28;20053;-65
2022/07/09 08:51:14;;;;;;;11.07;2.50;;;;;;;23.42;47.11;102262.25;5015394;28;20647;-67
2022/07/09 08:53:43;;;;;;;11.80;2.70;;;;;;;23.67;47.31;102262.88;5029079;28;20060;-67
2022/07/09 08:56:11;;;;;;;7.07;1.90;;;;;;;23.61;47.03;102256.72;5025684;28;20508;-67
2022/07/09 08:58:39;;;;;;;6.18;2.00;;;;;;;23.83;46.32;102246.78;5016168;28;20272;-68
2022/07/09 09:01:07;;;;;;;10.82;2.53;;;;;;;24.05;46.04;102243.31;5023533;28;20064;-68
2022/07/09 09:03:35;;;;;;;10.38;2.30;;;;;;;24.07;45.93;102243.75;5034437;28;20045;-67
2022/07/09 09:06:04;;;;;;;8.65;2.10;;;;;;;24.05;45.48;102241.31;5027907;28;20057;-67
2022/07/09 09:08:36;;;;;;;6.17;2.13;;;;;;;23.42;46.56;102242.56;5024784;28;20053;-67
2022/07/09 09:11:05;;;;;;;7.13;2.00;;;;;;;23.67;46.27;102235.56;5034442;28;20480;-66
2022/07/09 09:13:45;;;;;;;8.77;2.17;;;;;;;23.75;45.82;102234.53;5003816;28;20076;-66
2022/07/09 09:16:13;;;;;;;8.02;2.22;;;;;;;24.30;45.06;102230.59;5029792;28;20063;-68
2022/07/09 09:18:42;;;;;;;7.53;2.28;;;;;;;24.40;44.18;102218.72;5022617;28;20049;-67
2022/07/09 09:21:11;;;;;;;10.20;1.97;;;;;;;24.00;44.97;102230.34;5031907;28;20049;-67
2022/07/09 09:23:46;;;;;;;9.15;2.08;;;;;;;23.79;45.34;102229.81;5033782;28;20052;-68
2022/07/09 09:26:19;;;;;;;8.27;2.17;;;;;;;24.03;44.70;102220.31;5034080;28;20520;-68
2022/07/09 09:28:48;;;;;;;5.25;1.95;;;;;;;24.22;44.93;102225.97;5032990;28;20053;-69
2022/07/09 09:31:25;;;;;;;13.70;2.20;;;;;;;24.45;44.12;102224.88;5031653;28;20372;-67
2022/07/09 09:34:13;;;;;;;7.30;2.05;;;;;;;24.88;43.34;102218.09;5034671;28;20060;-68
2022/07/09 09:36:48;;;;;;;8.02;2.10;;;;;;;24.62;43.51;102228.44;5020068;28;20054;-66
2022/07/09 09:39:19;;;;;;;8.05;2.13;;;;;;;24.41;44.08;102232.44;5034061;28;20041;-67
2022/07/09 09:41:48;;;;;;;7.32;1.92;;;;;;;24.72;43.80;102227.84;5028787;28;20061;-66
2022/07/09 09:44:18;;;;;;;7.83;2.07;;;;;;;24.31;44.54;102233.03;5034142;28;20046;-67
2022/07/09 09:46:46;;;;;;;5.65;2.00;;;;;;;23.99;44.97;102234.31;5029415;28;20064;-65
2022/07/09 09:49:15;;;;;;;7.70;2.20;;;;;;;24.13;45.04;102231.03;5027911;28;20053;-67
2022/07/09 09:51:56;;;;;;;6.43;1.90;;;;;;;24.39;44.79;102228.38;5043332;28;20536;-67
2022/07/09 09:54:24;;;;;;;7.80;1.90;;;;;;;24.62;44.11;102234.06;5028481;28;20045;-68
2022/07/09 09:56:52;;;;;;;6.18;1.73;;;;;;;24.36;44.52;102235.56;5033223;28;20053;-67
2022/07/09 09:59:19;;;;;;;7.93;2.70;;;;;;;24.07;44.82;102229.69;5021505;28;20061;-68
2022/07/09 10:01:47;;;;;;;7.80;2.30;;;;;;;24.06;45.06;102226.03;5027450;28;20060;-62
2022/07/09 10:04:18;;;;;;;5.80;2.10;;;;;;;24.12;45.23;102229.38;5054735;28;20049;-61
2022/07/09 10:06:46;;;;;;;10.52;2.42;;;;;;;24.37;44.94;102233.56;5053602;28;20407;-66
2022/07/09 10:09:14;;;;;;;8.10;2.10;;;;;;;24.36;44.32;102237.53;5034537;28;20056;-66
2022/07/09 10:11:46;;;;;;;7.25;2.20;;;;;;;24.46;44.64;102225.72;5040945;28;20050;-64
2022/07/09 10:14:28;;;;;;;6.63;2.00;;;;;;;24.68;44.12;102226.94;5039242;28;20053;-68
2022/07/09 10:16:56;;;;;;;6.78;2.05;;;;;;;24.70;44.13;102221.78;5052652;28;20068;-67
2022/07/09 10:19:33;;;;;;;7.22;1.80;;;;;;;25.19;43.62;102219.88;5025523;28;20049;-65
2022/07/09 10:22:00;;;;;;;89.13;8.85;;;;;;;25.33;42.76;102217.31;5043788;28;20057;-66
2022/07/09 10:24:32;;;;;;;10.25;2.60;;;;;;;24.76;43.94;102231.56;5045858;28;20587;-66
2022/07/09 10:27:03;;;;;;;8.20;2.50;;;;;;;24.76;43.67;102220.28;5036237;28;20045;-69
2022/07/09 10:29:31;;;;;;;10.80;2.17;;;;;;;24.69;43.82;102223.78;5038656;28;20057;-68
2022/07/09 10:31:58;;;;;;;4.63;1.70;;;;;;;24.88;43.32;102217.31;5043611;28;20056;-66
2022/07/09 10:34:32;;;;;;;9.15;2.15;;;;;;;24.84;43.78;102213.59;5031269;28;20049;-66
2022/07/09 10:37:00;;;;;;;6.13;2.00;;;;;;;24.92;43.28;102192.78;5036018;28;20523;-69
2022/07/09 10:39:29;;;;;;;6.63;1.90;;;;;;;25.00;43.11;102197.38;5044661;28;20056;-66
2022/07/09 10:42:00;;;;;;;4.88;1.73;;;;;;;25.05;42.98;102205.53;5036995;28;20049;-66
2022/07/09 10:44:33;;;;;;;4.32;2.03;;;;;;;24.94;42.99;102202.50;5041885;28;20044;-67
2022/07/09 10:47:02;;;;;;;3.78;1.80;;;;;;;25.09;43.02;102197.94;5042766;28;20123;-65
2022/07/09 10:49:29;;;;;;;5.38;1.98;;;;;;;25.35;42.83;102195.19;5038083;28;20053;-66
2022/07/09 10:51:58;;;;;;;6.95;2.08;;;;;;;25.43;42.18;102188.47;5043324;28;20453;-65
2022/07/09 10:54:33;;;;;;;5.78;1.92;;;;;;;25.42;42.02;102184.84;5016955;28;20045;-66
2022/07/09 10:57:00;;;;;;;5.13;1.90;;;;;;;25.69;41.87;102188.47;5036037;28;20054;-68
2022/07/09 10:59:28;;;;;;;9.25;2.13;;;;;;;25.61;42.26;102185.94;5041333;28;20053;-66
2022/07/09 11:01:56;;;;;;;4.15;1.73;;;;;;;25.55;41.66;102172.16;5042721;28;20049;-65
2022/07/09 11:04:28;;;;;;;7.72;2.00;;;;;;;25.15;42.06;102182.34;5041138;28;20036;-65
2022/07/09 11:06:58;;;;;;;5.10;1.92;;;;;;;24.96;42.76;102182.41;5035482;28;20053;-66
2022/07/09 11:09:28;;;;;;;5.90;1.90;;;;;;;24.94;42.95;102171.50;5032241;28;20042;-67
2022/07/09 11:11:55;;;;;;;7.63;1.77;;;;;;;25.24;42.19;102171.59;5035484;28;20045;-67
2022/07/09 11:14:22;;;;;;;7.03;1.88;;;;;;;25.38;41.28;102166.22;5018578;28;20416;-66
2022/07/09 11:16:58;;;;;;;6.00;2.00;;;;;;;25.37;41.73;102165.41;5035169;28;20539;-64
2022/07/09 11:19:26;;;;;;;6.18;2.60;;;;;;;25.26;41.52;102164.38;5034088;28;20053;-67
2022/07/09 11:22:03;;;;;;;7.43;3.17;;;;;;;25.57;41.22;102160.47;5017390;28;20045;-67
2022/07/09 11:24:31;;;;;;;13.00;4.70;;;;;;;25.75;40.86;102157.91;5060997;28;20068;-60
2022/07/09 11:27:03;;;;;;;9.15;3.15;;;;;;;25.69;41.03;102165.91;5037326;28;20042;-62
2022/07/09 11:29:30;;;;;;;6.47;3.28;;;;;;;25.47;40.91;102158.31;5035217;28;20514;-60